createdAt,value
2022-10-14T00:01:45.703Z,25.30
2022-10-14T00:04:15.557Z,27.77
2022-10-14T00:06:46.285Z,25.33
2022-10-14T00:09:13.587Z,24.47
2022-10-14T00:11:43.865Z,27.47
2022-10-14T00:14:18.387Z,23.60
2022-10-14T00:16:56.302Z,23.10
2022-10-14T00:19:29.072Z,22.57
2022-10-14T00:22:01.546Z,23.90
2022-10-14T00:24:29.024Z,24.70
2022-10-14T00:26:56.425Z,23.63
2022-10-14T00:29:29.418Z,25.67
2022-10-14T00:31:56.421Z,22.07
2022-10-14T00:34:23.265Z,22.77
2022-10-14T00:36:50.182Z,24.00
2022-10-14T00:39:17.341Z,24.70
2022-10-14T00:41:45.106Z,25.17
2022-10-14T00:44:17.586Z,24.43
2022-10-14T00:46:49.605Z,25.93
2022-10-14T00:49:37.154Z,25.73
2022-10-14T00:52:09.731Z,25.53
2022-10-14T00:54:44.214Z,25.87
2022-10-14T00:57:11.733Z,23.83
2022-10-14T00:59:39.140Z,23.97
2022-10-14T01:02:06.095Z,25.37
2022-10-14T01:04:34.089Z,23.97
2022-10-14T01:07:27.228Z,26.40
2022-10-14T01:09:59.981Z,25.10
2022-10-14T01:12:37.734Z,24.27
2022-10-14T01:15:24.896Z,21.63
2022-10-14T01:18:24.080Z,20.13
2022-10-14T01:21:28.973Z,21.03
2022-10-14T01:24:21.509Z,18.90
2022-10-14T01:27:11.188Z,19.50
2022-10-14T01:29:47.209Z,18.30
2022-10-14T01:32:22.167Z,18.23
2022-10-14T01:34:59.981Z,17.43
2022-10-14T01:37:29.913Z,16.60
2022-10-14T01:40:02.700Z,16.37
2022-10-14T01:42:34.041Z,17.37
2022-10-14T01:45:17.598Z,16.90
2022-10-14T01:47:46.886Z,16.73
2022-10-14T01:50:18.442Z,14.57
2022-10-14T01:53:09.230Z,15.73
2022-10-14T01:55:40.288Z,16.23
2022-10-14T01:58:11.143Z,19.80
2022-10-14T02:00:38.451Z,17.73
2022-10-14T02:03:05.403Z,16.87
2022-10-14T02:05:41.395Z,14.17
2022-10-14T02:08:25.804Z,15.00
2022-10-14T02:11:07.106Z,13.77
2022-10-14T02:14:11.287Z,12.23
2022-10-14T02:17:03.193Z,12.93
2022-10-14T02:19:42.369Z,13.23
2022-10-14T02:22:14.425Z,11.97
2022-10-14T02:24:44.761Z,12.83
2022-10-14T02:27:14.953Z,12.10
2022-10-14T02:29:47.690Z,15.50
2022-10-14T02:32:17.504Z,13.77
2022-10-14T02:34:47.661Z,14.73
2022-10-14T02:37:16.915Z,14.53
2022-10-14T02:39:57.393Z,13.77
2022-10-14T02:42:24.394Z,14.50
2022-10-14T02:45:00.031Z,14.97
2022-10-14T02:47:27.756Z,12.97
2022-10-14T02:49:56.764Z,13.57
2022-10-14T02:52:24.000Z,12.83
2022-10-14T02:54:53.836Z,13.50
2022-10-14T02:57:20.941Z,15.20
2022-10-14T02:59:48.206Z,14.40
2022-10-14T03:02:15.105Z,14.83
2022-10-14T03:04:43.041Z,13.63
2022-10-14T03:07:09.964Z,15.00
2022-10-14T03:09:37.083Z,16.20
2022-10-14T03:12:04.115Z,15.77
2022-10-14T03:14:30.920Z,15.17
2022-10-14T03:16:57.838Z,15.43
2022-10-14T03:19:24.974Z,15.83
2022-10-14T03:21:51.988Z,15.63
2022-10-14T03:24:19.088Z,15.60
2022-10-14T03:26:45.947Z,17.53
2022-10-14T03:29:12.775Z,17.80
2022-10-14T03:31:39.722Z,18.03
2022-10-14T03:34:06.747Z,17.70
2022-10-14T03:36:33.672Z,19.43
2022-10-14T03:39:00.649Z,20.27
2022-10-14T03:41:27.684Z,17.03
2022-10-14T03:43:54.480Z,19.87
2022-10-14T03:46:21.572Z,19.73
2022-10-14T03:48:48.490Z,21.07
2022-10-14T03:51:20.015Z,19.57
2022-10-14T03:53:46.818Z,19.13
2022-10-14T03:56:13.677Z,19.40
2022-10-14T03:58:40.605Z,19.30
2022-10-14T04:01:07.389Z,20.57
2022-10-14T04:03:34.345Z,21.17
2022-10-14T04:06:01.249Z,21.73
2022-10-14T04:08:28.286Z,22.10
2022-10-14T04:10:56.263Z,22.67
2022-10-14T04:13:23.522Z,22.87
2022-10-14T04:15:50.541Z,24.23
2022-10-14T04:18:17.367Z,23.17
2022-10-14T04:20:44.462Z,23.47
2022-10-14T04:23:13.796Z,25.60
2022-10-14T04:25:40.698Z,26.33
2022-10-14T04:28:08.618Z,25.27
2022-10-14T04:30:35.680Z,26.50
2022-10-14T04:33:02.446Z,24.80
2022-10-14T04:35:29.415Z,27.63
2022-10-14T04:37:56.289Z,27.10
2022-10-14T04:40:26.128Z,26.83
2022-10-14T04:42:57.540Z,28.93
2022-10-14T04:45:25.357Z,29.47
2022-10-14T04:47:52.543Z,30.03
2022-10-14T04:50:20.007Z,30.20
2022-10-14T04:52:47.072Z,30.10
2022-10-14T04:55:14.087Z,31.13
2022-10-14T04:57:43.841Z,31.13
2022-10-14T05:00:13.932Z,34.40
2022-10-14T05:02:40.784Z,30.60
2022-10-14T05:05:08.242Z,30.43
2022-10-14T05:07:35.772Z,30.27
2022-10-14T05:10:04.599Z,32.40
2022-10-14T05:12:32.571Z,30.67
2022-10-14T05:14:59.590Z,30.40
2022-10-14T05:17:26.449Z,29.83
2022-10-14T05:19:53.309Z,29.00
2022-10-14T05:22:20.650Z,28.93
2022-10-14T05:24:47.876Z,30.43
2022-10-14T05:27:14.627Z,30.03
2022-10-14T05:29:41.395Z,31.53
2022-10-14T05:32:08.408Z,31.93
2022-10-14T05:34:35.982Z,31.53
2022-10-14T05:37:03.584Z,31.60
2022-10-14T05:39:30.773Z,32.80
2022-10-14T05:41:57.514Z,34.30
2022-10-14T05:44:24.539Z,33.13
2022-10-14T05:46:51.400Z,31.77
2022-10-14T05:49:18.253Z,34.60
2022-10-14T05:51:45.160Z,31.87
2022-10-14T05:54:12.397Z,32.40
2022-10-14T05:56:39.329Z,32.77
2022-10-14T05:59:06.200Z,35.40
2022-10-14T06:01:34.871Z,34.47
2022-10-14T06:04:01.654Z,37.40
2022-10-14T06:06:29.204Z,39.27
2022-10-14T06:08:58.387Z,37.33
2022-10-14T06:11:25.259Z,37.80
2022-10-14T06:13:52.931Z,37.07
2022-10-14T06:16:22.072Z,39.93
2022-10-14T06:18:53.495Z,36.53
2022-10-14T06:21:21.348Z,37.73
2022-10-14T06:23:50.814Z,36.60
2022-10-14T06:26:17.792Z,37.20
2022-10-14T06:28:44.841Z,40.07
2022-10-14T06:31:11.983Z,41.07
2022-10-14T06:33:41.406Z,41.33
2022-10-14T06:36:09.274Z,40.20
2022-10-14T06:38:36.089Z,42.60
2022-10-14T06:41:03.178Z,40.80
2022-10-14T06:43:30.185Z,37.43
2022-10-14T06:45:57.901Z,40.33
2022-10-14T06:48:24.937Z,39.43
2022-10-14T06:50:52.119Z,38.23
2022-10-14T06:53:19.211Z,36.20
2022-10-14T06:55:46.504Z,36.57
2022-10-14T06:58:13.413Z,39.70
2022-10-14T07:00:43.217Z,38.23
2022-10-14T07:03:16.202Z,37.73
2022-10-14T07:05:43.054Z,39.53
2022-10-14T07:08:12.783Z,37.23
2022-10-14T07:10:43.184Z,36.27
2022-10-14T07:13:10.055Z,36.00
2022-10-14T07:15:38.954Z,34.13
2022-10-14T07:18:06.694Z,36.30
2022-10-14T07:20:36.542Z,35.40
2022-10-14T07:23:03.341Z,35.80
2022-10-14T07:25:30.409Z,33.63
2022-10-14T07:27:59.920Z,33.03
2022-10-14T07:30:32.478Z,33.63
2022-10-14T07:32:59.825Z,32.10
2022-10-14T07:35:29.810Z,32.40
2022-10-14T07:38:01.209Z,32.63
2022-10-14T07:40:28.446Z,31.57
2022-10-14T07:42:55.324Z,30.47
2022-10-14T07:45:24.634Z,30.53
2022-10-14T07:47:51.601Z,31.63
2022-10-14T07:50:19.043Z,33.60
2022-10-14T07:52:45.736Z,31.77
2022-10-14T07:55:12.585Z,31.37
2022-10-14T07:57:39.457Z,32.80
2022-10-14T08:00:07.156Z,33.17
2022-10-14T08:02:34.064Z,31.73
2022-10-14T08:05:25.675Z,31.33
2022-10-14T08:07:48.373Z,29.73
2022-10-14T08:10:15.290Z,30.73
2022-10-14T08:12:42.231Z,31.13
2022-10-14T08:15:09.528Z,29.37
2022-10-14T08:17:36.505Z,28.50
2022-10-14T08:20:03.468Z,27.87
2022-10-14T08:22:30.365Z,28.53
2022-10-14T08:24:57.108Z,27.37
2022-10-14T08:27:26.789Z,26.20
2022-10-14T08:29:54.631Z,27.13
2022-10-14T08:32:23.485Z,25.47
2022-10-14T08:34:50.609Z,25.00
2022-10-14T08:37:17.522Z,25.63
2022-10-14T08:39:44.573Z,24.57
2022-10-14T08:42:20.893Z,22.43
2022-10-14T08:44:56.469Z,21.87
2022-10-14T08:47:35.774Z,22.03
2022-10-14T08:50:26.718Z,21.33
2022-10-14T08:53:00.593Z,20.73
2022-10-14T08:55:37.663Z,18.17
2022-10-14T08:58:20.805Z,19.87
2022-10-14T09:00:52.565Z,19.27
2022-10-14T09:03:23.760Z,18.57
2022-10-14T09:06:10.716Z,17.77
2022-10-14T09:08:42.460Z,17.43
2022-10-14T09:11:19.163Z,15.90
2022-10-14T09:13:49.875Z,15.80
2022-10-14T09:16:31.161Z,14.13
2022-10-14T09:19:03.589Z,14.27
2022-10-14T09:21:51.683Z,15.10
2022-10-14T09:24:23.463Z,13.63
2022-10-14T09:29:54.473Z,15.30
2022-10-14T09:32:30.149Z,15.33
2022-10-14T09:35:00.876Z,15.00
2022-10-14T09:37:32.136Z,15.17
2022-10-14T09:40:50.241Z,13.93
2022-10-14T09:43:22.206Z,13.63
2022-10-14T09:45:51.817Z,13.63
2022-10-14T09:48:44.737Z,13.27
2022-10-14T09:51:19.862Z,13.27
2022-10-14T09:53:50.083Z,12.90
2022-10-14T09:56:38.972Z,12.50
2022-10-14T09:59:20.470Z,11.37
2022-10-14T10:01:54.419Z,10.10
2022-10-14T10:04:47.032Z,11.15
2022-10-14T10:07:30.838Z,10.40
2022-10-14T10:10:00.400Z,10.18
2022-10-14T10:12:35.463Z,9.35
2022-10-14T10:15:05.965Z,8.98
2022-10-14T10:17:35.955Z,9.10
2022-10-14T10:20:15.996Z,9.18
2022-10-14T10:22:43.123Z,8.55
2022-10-14T10:25:10.015Z,8.75
2022-10-14T10:27:39.787Z,9.45
2022-10-14T10:30:18.418Z,8.63
2022-10-14T10:32:48.212Z,8.52
2022-10-14T10:35:17.765Z,7.75
2022-10-14T10:38:10.001Z,7.28
2022-10-14T10:40:39.631Z,7.85
2022-10-14T10:43:32.987Z,7.53
2022-10-14T10:46:05.658Z,7.13
2022-10-14T10:48:55.567Z,7.28
2022-10-14T10:51:26.753Z,8.20
2022-10-14T10:54:09.542Z,8.18
2022-10-14T10:56:52.907Z,8.50
2022-10-14T10:59:37.665Z,8.82
2022-10-14T11:02:19.817Z,9.35
2022-10-14T11:05:16.457Z,10.20
2022-10-14T11:08:26.703Z,10.48
2022-10-14T11:11:17.120Z,10.88
2022-10-14T11:13:56.299Z,11.98
2022-10-14T11:16:52.627Z,10.93
2022-10-14T11:19:39.216Z,11.90
2022-10-14T11:22:28.741Z,12.38
2022-10-14T11:25:04.788Z,12.07
2022-10-14T11:27:43.665Z,12.85
2022-10-14T11:30:16.856Z,12.07
2022-10-14T11:33:10.041Z,12.68
2022-10-14T11:36:19.062Z,11.80
2022-10-14T11:39:05.997Z,11.65
2022-10-14T11:41:33.041Z,12.02
2022-10-14T11:44:15.604Z,12.07
2022-10-14T11:46:48.929Z,12.25
2022-10-14T11:49:40.620Z,12.35
2022-10-14T11:52:14.666Z,12.50
2022-10-14T11:54:50.538Z,12.32
2022-10-14T11:57:33.499Z,12.68
2022-10-14T12:00:22.237Z,12.57
2022-10-14T12:03:14.475Z,12.15
2022-10-14T12:05:49.883Z,13.40
2022-10-14T12:08:34.689Z,13.35
2022-10-14T12:11:22.579Z,13.30
2022-10-14T12:13:54.221Z,12.82
2022-10-14T12:16:24.360Z,12.57
2022-10-14T12:18:55.943Z,13.25
2022-10-14T12:21:57.177Z,13.23
2022-10-14T12:24:29.246Z,12.98
2022-10-14T12:27:04.833Z,13.00
2022-10-14T12:29:40.458Z,13.45
2022-10-14T12:32:30.960Z,13.23
2022-10-14T12:35:01.340Z,13.60
2022-10-14T12:37:32.445Z,12.27
2022-10-14T12:40:02.667Z,12.45
2022-10-14T12:42:53.732Z,13.25
2022-10-14T12:45:23.316Z,12.32
2022-10-14T12:48:15.588Z,12.02
2022-10-14T12:50:47.337Z,13.05
2022-10-14T12:53:32.479Z,12.43
2022-10-14T12:56:04.243Z,12.77
2022-10-14T12:58:30.933Z,12.90
2022-10-14T13:01:19.987Z,12.88
2022-10-14T13:03:58.541Z,11.40
2022-10-14T13:06:42.485Z,11.45
2022-10-14T13:09:12.407Z,11.75
2022-10-14T13:11:52.584Z,11.05
2022-10-14T13:14:31.946Z,10.98
2022-10-14T13:17:44.753Z,9.63
2022-10-14T13:20:36.024Z,8.95
2022-10-14T13:23:38.026Z,9.38
2022-10-14T13:26:17.749Z,7.78
2022-10-14T13:29:15.043Z,8.38
2022-10-14T13:32:27.337Z,7.55
2022-10-14T13:35:12.172Z,7.85
2022-10-14T13:37:46.286Z,7.00
2022-10-14T13:40:35.221Z,6.82
2022-10-14T13:43:32.699Z,6.65
2022-10-14T13:46:07.487Z,6.18
2022-10-14T13:48:39.246Z,6.72
2022-10-14T13:51:38.977Z,6.43
2022-10-14T13:54:18.643Z,6.55
2022-10-14T13:57:38.205Z,6.18
2022-10-14T14:00:27.829Z,6.00
2022-10-14T14:02:34.934Z,5.40
2022-10-14T14:05:02.286Z,5.30
2022-10-14T14:08:22.124Z,4.78
2022-10-14T14:10:24.949Z,4.95
2022-10-14T14:12:52.125Z,4.78
2022-10-14T14:15:23.922Z,5.47
2022-10-14T14:17:51.369Z,5.05
2022-10-14T14:20:24.108Z,4.75
2022-10-14T14:22:50.904Z,4.90
2022-10-14T14:26:01.139Z,4.85
2022-10-14T14:28:15.488Z,5.05
2022-10-14T14:30:55.419Z,4.53
2022-10-14T14:33:35.985Z,4.65
2022-10-14T14:36:05.417Z,5.55
2022-10-14T14:38:35.042Z,5.30
2022-10-14T14:41:02.758Z,4.45
2022-10-14T14:43:36.443Z,4.43
2022-10-14T14:46:06.845Z,4.00
2022-10-14T14:48:35.023Z,4.20
2022-10-14T14:51:02.263Z,3.58
2022-10-14T14:53:30.001Z,3.75
2022-10-14T14:55:56.666Z,3.65
2022-10-14T14:58:50.954Z,3.95
2022-10-14T15:01:26.320Z,3.60
2022-10-14T15:04:13.526Z,3.15
2022-10-14T15:06:39.694Z,3.80
2022-10-14T15:09:24.384Z,4.13
2022-10-14T15:11:54.900Z,4.35
2022-10-14T15:14:30.689Z,5.03
2022-10-14T15:16:57.450Z,5.30
2022-10-14T15:19:34.211Z,5.25
2022-10-14T15:22:17.208Z,5.05
2022-10-14T15:25:05.633Z,6.25
2022-10-14T15:27:35.574Z,9.02
2022-10-14T15:30:24.374Z,7.93
2022-10-14T15:32:54.412Z,8.73
2022-10-14T15:35:22.321Z,6.90
2022-10-14T15:37:50.106Z,7.68
2022-10-14T15:40:20.088Z,8.95
2022-10-14T15:42:47.787Z,45.65
2022-10-14T15:45:16.014Z,28.30
2022-10-14T15:47:43.105Z,27.00
2022-10-14T15:50:22.048Z,20.50
2022-10-14T15:52:48.966Z,14.80
2022-10-14T15:55:24.063Z,14.30
2022-10-14T15:57:52.584Z,10.83
2022-10-14T16:00:21.547Z,10.90
2022-10-14T16:02:53.629Z,11.43
2022-10-14T16:05:21.498Z,12.25
2022-10-14T16:07:48.879Z,12.37
2022-10-14T16:10:21.535Z,12.02
2022-10-14T16:12:48.619Z,12.30
2022-10-14T16:15:46.251Z,14.23
2022-10-14T16:18:15.012Z,18.37
2022-10-14T16:20:41.885Z,22.98
2022-10-14T16:23:10.927Z,18.70
2022-10-14T16:25:44.587Z,13.97
2022-10-14T16:28:12.769Z,19.87
2022-10-14T16:30:43.923Z,21.23
2022-10-14T16:35:38.667Z,22.73
2022-10-14T16:38:05.489Z,27.20
2022-10-14T16:40:36.581Z,20.37
2022-10-14T16:43:04.156Z,18.63
2022-10-14T16:45:31.025Z,17.83
2022-10-14T16:47:57.825Z,18.13
2022-10-14T16:50:25.226Z,19.57
2022-10-14T16:53:10.865Z,19.43
2022-10-14T16:55:39.319Z,24.60
2022-10-14T16:58:06.249Z,36.40
2022-10-14T17:00:33.246Z,36.33
2022-10-14T17:03:00.287Z,29.87
2022-10-14T17:05:27.067Z,21.80
2022-10-14T17:07:53.968Z,21.37
2022-10-14T17:10:21.431Z,21.37
2022-10-14T17:12:48.359Z,21.83
2022-10-14T17:15:15.132Z,22.33
2022-10-14T17:17:41.942Z,22.63
2022-10-14T17:20:09.371Z,22.20
2022-10-14T17:22:36.549Z,24.97
2022-10-14T17:25:03.617Z,28.23
2022-10-14T17:27:30.427Z,26.53
2022-10-14T17:29:57.160Z,31.43
2022-10-14T17:32:24.431Z,30.83
2022-10-14T17:34:53.524Z,29.17
2022-10-14T17:37:21.093Z,27.97
2022-10-14T17:39:48.121Z,28.10
2022-10-14T17:42:14.850Z,29.20
2022-10-14T17:44:43.719Z,29.37
2022-10-14T17:47:11.155Z,27.37
2022-10-14T17:49:37.874Z,31.40
2022-10-14T17:52:06.326Z,40.13
2022-10-14T17:54:33.132Z,32.17
2022-10-14T17:56:59.872Z,35.57
2022-10-14T17:59:27.447Z,33.33
2022-10-14T18:02:03.106Z,33.37
2022-10-14T18:04:32.939Z,34.30
2022-10-14T18:06:59.906Z,35.83
2022-10-14T18:09:27.765Z,35.77
2022-10-14T18:12:10.493Z,37.47
2022-10-14T18:14:38.658Z,34.87
2022-10-14T18:17:05.532Z,37.70
2022-10-14T18:19:34.831Z,36.83
2022-10-14T18:22:02.449Z,33.73
2022-10-14T18:24:29.279Z,34.63
2022-10-14T18:26:56.920Z,35.50
2022-10-14T18:29:24.184Z,37.20
2022-10-14T18:34:19.063Z,36.50
2022-10-14T18:36:47.817Z,39.70
2022-10-14T18:39:15.582Z,38.80
2022-10-14T18:41:43.846Z,36.93
2022-10-14T18:44:10.687Z,42.97
2022-10-14T18:46:39.306Z,41.00
2022-10-14T18:49:08.461Z,42.90
2022-10-14T18:51:37.314Z,36.20
2022-10-14T18:54:14.406Z,36.57
2022-10-14T18:56:41.391Z,36.90
2022-10-14T18:59:18.073Z,35.97
2022-10-14T19:01:46.109Z,36.57
2022-10-14T19:04:14.476Z,38.83
2022-10-14T19:06:44.936Z,42.67
2022-10-14T19:09:12.687Z,47.27
2022-10-14T19:11:39.560Z,46.20
2022-10-14T19:14:06.497Z,57.90
2022-10-14T19:16:36.781Z,61.30
2022-10-14T19:19:15.072Z,54.93
2022-10-14T19:21:43.394Z,49.70
2022-10-14T19:24:11.994Z,44.37
2022-10-14T19:26:44.311Z,42.07
2022-10-14T19:29:13.516Z,41.17
2022-10-14T19:31:41.057Z,42.23
2022-10-14T19:34:10.210Z,47.00
2022-10-14T19:36:38.454Z,46.40
2022-10-14T19:39:07.480Z,44.67
2022-10-14T19:41:38.427Z,42.47
2022-10-14T19:44:05.344Z,43.93
2022-10-14T19:46:32.353Z,40.87
2022-10-14T19:49:02.319Z,42.80
2022-10-14T19:51:29.621Z,44.50
2022-10-14T19:53:57.080Z,45.63
2022-10-14T19:56:25.420Z,54.00
2022-10-14T19:58:54.523Z,52.83
2022-10-14T20:01:23.859Z,49.70
2022-10-14T20:03:51.399Z,49.43
2022-10-14T20:06:18.528Z,45.87
2022-10-14T20:08:46.058Z,47.07
2022-10-14T20:11:16.470Z,41.33
2022-10-14T20:13:46.993Z,42.30
2022-10-14T20:16:14.358Z,40.17
2022-10-14T20:18:41.788Z,41.10
2022-10-14T20:21:11.542Z,41.33
2022-10-14T20:23:38.753Z,44.37
2022-10-14T20:26:11.330Z,45.03
2022-10-14T20:28:39.002Z,47.70
2022-10-14T20:31:07.547Z,49.73
2022-10-14T20:33:34.445Z,50.90
2022-10-14T20:36:03.345Z,50.80
2022-10-14T20:38:30.322Z,51.40
2022-10-14T20:41:08.820Z,51.73
2022-10-14T20:43:35.890Z,48.87
2022-10-14T20:46:02.743Z,47.17
2022-10-14T20:48:29.453Z,46.93
2022-10-14T20:50:56.306Z,47.17
2022-10-14T20:53:24.070Z,47.40
2022-10-14T20:55:50.810Z,45.67
2022-10-14T20:58:18.519Z,45.80
2022-10-14T21:00:45.746Z,47.23
2022-10-14T21:03:12.797Z,47.73
2022-10-14T21:05:41.359Z,45.53
2022-10-14T21:08:10.720Z,46.67
2022-10-14T21:10:37.498Z,47.27
2022-10-14T21:13:04.252Z,46.63
2022-10-14T21:15:34.001Z,45.20
2022-10-14T21:18:00.996Z,42.17
2022-10-14T21:20:27.696Z,48.80
2022-10-14T21:22:54.494Z,46.67
2022-10-14T21:25:21.250Z,45.67
2022-10-14T21:27:47.986Z,45.03
2022-10-14T21:30:14.930Z,43.23
2022-10-14T21:32:41.810Z,45.03
2022-10-14T21:35:08.757Z,45.93
2022-10-14T21:37:38.482Z,46.43
2022-10-14T21:40:05.835Z,49.40
2022-10-14T21:42:32.621Z,46.17
2022-10-14T21:44:59.309Z,45.63
2022-10-14T21:47:26.163Z,43.07
2022-10-14T21:49:53.241Z,42.17
2022-10-14T21:52:20.640Z,42.53
2022-10-14T21:54:47.786Z,45.13
2022-10-14T21:57:14.804Z,42.20
2022-10-14T21:59:41.629Z,42.30
2022-10-14T22:02:08.942Z,45.80
2022-10-14T22:04:38.228Z,42.87
2022-10-14T22:07:06.576Z,45.93
2022-10-14T22:09:33.282Z,45.60
2022-10-14T22:12:00.702Z,44.63
2022-10-14T22:14:27.427Z,46.87
2022-10-14T22:16:54.217Z,48.03
2022-10-14T22:19:20.908Z,45.03
2022-10-14T22:21:47.859Z,46.93
2022-10-14T22:24:14.563Z,45.87
2022-10-14T22:26:42.015Z,45.37
2022-10-14T22:29:16.596Z,44.03
2022-10-14T22:31:43.785Z,45.80
2022-10-14T22:34:12.473Z,46.97
2022-10-14T22:36:39.661Z,44.50
2022-10-14T22:39:10.131Z,43.83
2022-10-14T22:41:39.779Z,46.50
2022-10-14T22:44:10.721Z,47.23
2022-10-14T22:46:39.414Z,46.07
2022-10-14T22:49:06.616Z,47.03
2022-10-14T22:51:41.506Z,45.10
2022-10-14T22:54:09.346Z,44.17
2022-10-14T22:56:36.150Z,44.10
2022-10-14T22:59:06.720Z,41.97
2022-10-14T23:01:34.211Z,44.30
2022-10-14T23:04:01.210Z,43.67
2022-10-14T23:06:29.131Z,43.13
2022-10-14T23:08:56.657Z,43.97
2022-10-14T23:11:25.132Z,41.93
2022-10-14T23:13:52.476Z,43.90
2022-10-14T23:16:21.735Z,43.10
2022-10-14T23:18:49.553Z,42.30
2022-10-14T23:21:28.270Z,43.77
2022-10-14T23:24:00.422Z,44.10
2022-10-14T23:26:31.657Z,47.20
2022-10-14T23:28:59.429Z,44.87
2022-10-14T23:31:28.971Z,47.37
2022-10-14T23:33:58.607Z,46.13
2022-10-14T23:36:26.121Z,44.07
2022-10-14T23:38:53.043Z,43.47
2022-10-14T23:41:22.082Z,43.57
2022-10-14T23:43:50.248Z,43.50
2022-10-14T23:46:17.378Z,47.37
2022-10-14T23:48:51.395Z,45.17
2022-10-14T23:51:27.832Z,46.90
2022-10-14T23:53:54.572Z,46.93
2022-10-14T23:56:22.288Z,45.73
2022-10-14T23:58:49.081Z,45.33
